createdAt,value
2018-04-08T00:00:29.547Z,60.73
2018-04-08T00:01:36.811Z,60.72
2018-04-08T00:02:42.568Z,60.77
2018-04-08T00:03:48.355Z,60.80
2018-04-08T00:04:54.132Z,60.94
2018-04-08T00:05:59.928Z,60.89
2018-04-08T00:07:05.686Z,60.89
2018-04-08T00:08:11.452Z,60.90
2018-04-08T00:09:17.258Z,61.03
2018-04-08T00:10:23.025Z,61.03
2018-04-08T00:11:28.789Z,61.11
2018-04-08T00:12:34.215Z,61.12
2018-04-08T00:13:40.745Z,61.10
2018-04-08T00:14:46.544Z,61.17
2018-04-08T00:15:53.080Z,61.22
2018-04-08T00:16:58.975Z,61.48
2018-04-08T00:18:05.530Z,61.56
2018-04-08T00:19:11.305Z,61.60
2018-04-08T00:20:17.171Z,61.73
2018-04-08T00:21:22.928Z,61.86
2018-04-08T00:22:28.692Z,61.89
2018-04-08T00:23:34.985Z,61.88
2018-04-08T00:24:40.761Z,61.93
2018-04-08T00:25:46.876Z,61.94
2018-04-08T00:26:52.645Z,61.94
2018-04-08T00:27:58.424Z,61.95
2018-04-08T00:29:04.718Z,61.97
2018-04-08T00:30:10.514Z,61.97
2018-04-08T00:31:17.052Z,62.06
2018-04-08T00:32:22.822Z,62.09
2018-04-08T00:33:29.348Z,62.10
2018-04-08T00:34:35.117Z,62.22
2018-04-08T00:35:41.649Z,62.28
2018-04-08T00:36:47.429Z,62.33
2018-04-08T00:37:53.237Z,62.32
2018-04-08T00:38:59.008Z,62.55
2018-04-08T00:40:04.860Z,62.62
2018-04-08T00:41:10.644Z,62.54
2018-04-08T00:42:16.420Z,62.49
2018-04-08T00:43:22.173Z,62.55
2018-04-08T00:44:28.749Z,62.55
2018-04-08T00:45:34.513Z,62.56
2018-04-08T00:46:40.284Z,62.53
2018-04-08T00:47:45.754Z,62.48
2018-04-08T00:48:51.302Z,62.47
2018-04-08T00:49:56.839Z,62.51
2018-04-08T00:51:03.365Z,62.56
2018-04-08T00:52:09.122Z,62.68
2018-04-08T00:53:15.465Z,62.71
2018-04-08T00:54:33.308Z,62.74
2018-04-08T00:55:39.492Z,62.65
2018-04-08T00:56:45.051Z,62.75
2018-04-08T00:57:50.814Z,62.82
2018-04-08T00:58:58.108Z,62.70
2018-04-08T01:00:04.072Z,62.86
2018-04-08T01:01:09.837Z,62.93
2018-04-08T01:02:15.725Z,62.93
2018-04-08T01:03:21.510Z,62.87
2018-04-08T01:04:27.303Z,62.85
2018-04-08T01:05:32.860Z,62.90
2018-04-08T01:06:39.397Z,62.85
2018-04-08T01:07:45.160Z,63.06
2018-04-08T01:08:51.685Z,63.16
2018-04-08T01:09:57.252Z,63.36
2018-04-08T01:11:03.037Z,63.42
2018-04-08T01:12:08.787Z,63.50
2018-04-08T01:13:14.549Z,63.58
2018-04-08T01:14:20.322Z,63.60
2018-04-08T01:15:26.113Z,63.60
2018-04-08T01:16:31.870Z,63.64
2018-04-08T01:17:37.418Z,63.69
2018-04-08T01:18:43.211Z,63.67
2018-04-08T01:19:48.970Z,63.64
2018-04-08T01:20:54.756Z,63.68
2018-04-08T01:22:01.311Z,63.70
2018-04-08T01:23:07.078Z,63.53
2018-04-08T01:24:13.638Z,63.62
2018-04-08T01:25:20.175Z,63.61
2018-04-08T01:26:25.981Z,63.62
2018-04-08T01:27:31.757Z,63.78
2018-04-08T01:28:37.517Z,63.88
2018-04-08T01:29:44.055Z,63.92
2018-04-08T01:30:49.831Z,64.00
2018-04-08T01:31:55.636Z,64.14
2018-04-08T01:33:02.184Z,64.09
2018-04-08T01:34:07.967Z,64.12
2018-04-08T01:35:14.528Z,63.97
2018-04-08T01:36:20.837Z,63.98
2018-04-08T01:37:26.398Z,64.02
2018-04-08T01:38:32.193Z,64.24
2018-04-08T01:39:37.961Z,64.27
2018-04-08T01:40:43.936Z,64.29
2018-04-08T01:41:50.246Z,64.23
2018-04-08T01:42:56.028Z,64.47
2018-04-08T01:44:01.234Z,64.65
2018-04-08T01:45:07.008Z,64.66
2018-04-08T01:46:12.780Z,64.70
2018-04-08T01:47:18.593Z,64.99
2018-04-08T01:48:25.132Z,65.06
2018-04-08T01:49:30.922Z,65.07
2018-04-08T01:50:36.679Z,65.17
2018-04-08T01:51:42.816Z,65.16
2018-04-08T01:52:48.569Z,65.19
2018-04-08T01:53:54.352Z,65.16
2018-04-08T01:55:00.121Z,65.20
2018-04-08T01:56:06.638Z,65.22
2018-04-08T01:57:12.410Z,65.32
2018-04-08T01:58:18.944Z,65.42
2018-04-08T01:59:24.745Z,65.53
2018-04-08T02:00:31.273Z,65.55
2018-04-08T02:01:36.805Z,65.68
2018-04-08T02:02:43.343Z,65.78
2018-04-08T02:03:48.876Z,65.83
2018-04-08T02:04:54.670Z,66.02
2018-04-08T02:06:00.444Z,66.14
2018-04-08T02:07:06.201Z,66.15
2018-04-08T02:08:11.961Z,66.06
2018-04-08T02:09:17.732Z,65.97
2018-04-08T02:10:24.282Z,66.03
2018-04-08T02:11:30.807Z,66.11
2018-04-08T02:12:36.581Z,66.18
2018-04-08T02:13:43.113Z,66.19
2018-04-08T02:14:48.906Z,66.11
2018-04-08T02:15:54.692Z,66.08
2018-04-08T02:17:00.461Z,66.05
2018-04-08T02:18:06.226Z,66.13
2018-04-08T02:19:11.789Z,66.06
2018-04-08T02:20:17.562Z,66.03
2018-04-08T02:21:23.358Z,66.10
2018-04-08T02:22:29.125Z,66.22
2018-04-08T02:23:34.928Z,66.22
2018-04-08T02:24:41.441Z,66.25
2018-04-08T02:25:47.231Z,66.34
2018-04-08T02:26:53.022Z,66.35
2018-04-08T02:27:58.796Z,66.42
2018-04-08T02:29:05.385Z,66.46
2018-04-08T02:30:11.168Z,66.63
2018-04-08T02:31:16.935Z,66.60
2018-04-08T02:32:22.724Z,66.57
2018-04-08T02:33:28.495Z,66.50
2018-04-08T02:34:34.253Z,66.41
2018-04-08T02:35:40.014Z,66.32
2018-04-08T02:36:46.562Z,66.29
2018-04-08T02:37:52.369Z,66.16
2018-04-08T02:38:58.137Z,66.00
2018-04-08T02:40:03.906Z,65.97
2018-04-08T02:41:10.440Z,66.09
2018-04-08T02:42:16.208Z,66.10
2018-04-08T02:43:22.001Z,66.29
2018-04-08T02:44:27.772Z,66.30
2018-04-08T02:45:34.301Z,66.27
2018-04-08T02:46:40.145Z,66.16
2018-04-08T02:47:45.910Z,66.21
2018-04-08T02:48:51.699Z,66.16
2018-04-08T02:49:57.457Z,66.09
2018-04-08T02:51:03.248Z,66.07
2018-04-08T02:52:08.778Z,66.17
2018-04-08T02:53:14.870Z,66.21
2018-04-08T02:54:20.640Z,66.22
2018-04-08T02:55:26.408Z,66.37
2018-04-08T02:56:32.191Z,66.34
2018-04-08T02:57:37.723Z,66.31
2018-04-08T02:58:43.485Z,66.24
2018-04-08T02:59:49.304Z,66.17
2018-04-08T03:00:55.080Z,66.16
2018-04-08T03:02:00.858Z,66.16
2018-04-08T03:03:07.188Z,66.09
2018-04-08T03:04:12.949Z,66.06
2018-04-08T03:05:18.745Z,66.20
2018-04-08T03:06:24.586Z,66.19
2018-04-08T03:07:30.364Z,66.25
2018-04-08T03:08:36.129Z,66.25
2018-04-08T03:09:42.656Z,66.19
2018-04-08T03:10:48.449Z,66.14
2018-04-08T03:11:54.985Z,66.18
2018-04-08T03:13:00.750Z,66.29
2018-04-08T03:14:07.280Z,66.50
2018-04-08T03:15:13.066Z,66.40
2018-04-08T03:16:18.844Z,66.51
2018-04-08T03:17:24.617Z,66.42
2018-04-08T03:18:31.144Z,66.47
2018-04-08T03:19:37.204Z,66.47
2018-04-08T03:20:42.976Z,66.50
2018-04-08T03:21:49.533Z,66.69
2018-04-08T03:22:56.056Z,66.60
2018-04-08T03:24:01.821Z,66.59
2018-04-08T03:25:07.585Z,66.58
2018-04-08T03:26:13.362Z,66.63
2018-04-08T03:27:19.167Z,66.70
2018-04-08T03:28:25.700Z,66.67
2018-04-08T03:29:31.464Z,66.74
2018-04-08T03:30:37.995Z,66.90
2018-04-08T03:31:43.765Z,67.01
2018-04-08T03:32:50.328Z,67.13
2018-04-08T03:33:56.863Z,67.01
2018-04-08T03:35:02.632Z,67.00
2018-04-08T03:36:09.156Z,67.02
2018-04-08T03:37:14.918Z,67.10
2018-04-08T03:38:20.693Z,67.04
2018-04-08T03:39:26.128Z,67.08
2018-04-08T03:40:31.969Z,67.28
2018-04-08T03:41:37.732Z,67.38
2018-04-08T03:42:43.487Z,67.42
2018-04-08T03:43:49.280Z,67.51
2018-04-08T03:44:55.808Z,67.49
2018-04-08T03:46:01.591Z,67.46
2018-04-08T03:47:07.351Z,67.36
2018-04-08T03:48:13.109Z,67.32
2018-04-08T03:49:18.896Z,67.42
2018-04-08T03:50:25.423Z,67.50
2018-04-08T03:51:30.984Z,67.55
2018-04-08T03:52:36.744Z,67.68
2018-04-08T03:53:42.811Z,67.80
2018-04-08T03:54:48.369Z,67.81
2018-04-08T03:55:54.124Z,67.93
2018-04-08T03:56:59.659Z,68.07
2018-04-08T03:58:05.418Z,68.00
2018-04-08T03:59:10.950Z,68.12
2018-04-08T04:00:16.505Z,68.14
2018-04-08T04:01:22.805Z,68.23
2018-04-08T04:02:28.337Z,68.33
2018-04-08T04:03:34.091Z,68.59
2018-04-08T04:04:39.915Z,68.79
2018-04-08T04:05:45.469Z,68.87
2018-04-08T04:06:51.000Z,68.96
2018-04-08T04:07:56.772Z,68.99
2018-04-08T04:09:02.534Z,69.12
2018-04-08T04:10:09.722Z,69.17
2018-04-08T04:11:16.029Z,69.29
2018-04-08T04:12:21.566Z,69.24
2018-04-08T04:13:27.114Z,69.19
2018-04-08T04:14:32.652Z,69.24
2018-04-08T04:15:38.172Z,69.20
2018-04-08T04:16:43.728Z,69.23
2018-04-08T04:17:49.489Z,69.16
2018-04-08T04:19:11.889Z,69.22
2018-04-08T04:20:34.494Z,69.28
2018-04-08T04:21:57.060Z,69.30
2018-04-08T04:23:19.813Z,69.44
2018-04-08T04:24:42.294Z,69.66
2018-04-08T04:27:31.754Z,69.93
2018-04-08T04:28:38.266Z,69.91
2018-04-08T04:29:43.805Z,69.85
2018-04-08T04:30:49.334Z,69.90
2018-04-08T04:31:54.864Z,70.03
2018-04-08T04:33:00.679Z,70.12
2018-04-08T04:34:06.436Z,70.22
2018-04-08T04:35:11.969Z,70.41
2018-04-08T04:36:17.722Z,70.53
2018-04-08T04:37:23.472Z,70.58
2018-04-08T04:38:29.261Z,70.52
2018-04-08T04:39:35.778Z,70.42
2018-04-08T04:40:41.535Z,70.34
2018-04-08T04:41:47.292Z,70.48
2018-04-08T04:42:53.816Z,70.54
2018-04-08T04:43:59.620Z,70.60
2018-04-08T04:45:04.733Z,70.65
2018-04-08T04:46:11.623Z,70.68
2018-04-08T04:47:17.378Z,70.56
2018-04-08T04:48:23.142Z,70.71
2018-04-08T04:49:28.952Z,70.78
2018-04-08T04:50:34.715Z,70.82
2018-04-08T04:51:40.474Z,70.84
2018-04-08T04:52:46.228Z,70.77
2018-04-08T04:53:52.008Z,70.71
2018-04-08T04:54:57.794Z,70.85
2018-04-08T04:56:03.533Z,71.02
2018-04-08T04:57:09.340Z,71.04
2018-04-08T04:58:15.085Z,71.10
2018-04-08T04:59:20.845Z,71.21
2018-04-08T05:00:26.403Z,71.26
2018-04-08T05:01:31.924Z,71.35
2018-04-08T05:02:37.673Z,71.30
2018-04-08T05:03:43.236Z,71.11
2018-04-08T05:04:49.180Z,71.09
2018-04-08T05:05:55.024Z,71.04
2018-04-08T05:07:00.783Z,71.01
2018-04-08T05:08:07.316Z,70.99
2018-04-08T05:09:13.078Z,70.87
2018-04-08T05:10:19.608Z,70.75
2018-04-08T05:11:25.393Z,70.63
2018-04-08T05:12:31.908Z,70.53
2018-04-08T05:13:37.670Z,70.52
2018-04-08T05:14:43.435Z,70.44
2018-04-08T05:15:49.198Z,70.32
2018-04-08T05:16:54.978Z,70.24
2018-04-08T05:18:00.775Z,70.11
2018-04-08T05:19:06.525Z,70.06
2018-04-08T05:20:12.303Z,69.96
2018-04-08T05:21:18.080Z,69.90
2018-04-08T05:22:24.632Z,69.83
2018-04-08T05:23:31.360Z,69.80
2018-04-08T05:24:37.124Z,69.91
2018-04-08T05:25:43.093Z,69.99
2018-04-08T05:26:49.612Z,70.00
2018-04-08T05:27:55.056Z,69.95
2018-04-08T05:29:01.583Z,70.00
2018-04-08T05:30:07.331Z,69.92
2018-04-08T05:31:13.096Z,69.85
2018-04-08T05:32:18.856Z,69.78
2018-04-08T05:33:24.629Z,69.71
2018-04-08T05:34:30.407Z,69.71
2018-04-08T05:35:36.173Z,69.58
2018-04-08T05:36:41.936Z,69.40
2018-04-08T05:37:48.465Z,69.27
2018-04-08T05:38:54.236Z,69.21
2018-04-08T05:40:00.765Z,69.17
2018-04-08T05:41:06.521Z,69.17
2018-04-08T05:42:12.276Z,69.22
2018-04-08T05:43:18.809Z,69.28
2018-04-08T05:44:24.585Z,69.27
2018-04-08T05:45:31.108Z,69.22
2018-04-08T05:46:36.885Z,69.12
2018-04-08T05:47:43.176Z,69.03
2018-04-08T05:48:48.942Z,69.06
2018-04-08T05:49:54.516Z,68.90
2018-04-08T05:51:01.048Z,68.75
2018-04-08T05:52:06.580Z,68.62
2018-04-08T05:53:13.930Z,68.52
2018-04-08T05:54:19.689Z,68.38
2018-04-08T05:55:25.507Z,68.36
2018-04-08T05:56:31.302Z,68.33
2018-04-08T05:57:36.865Z,68.25
2018-04-08T05:58:43.388Z,68.14
2018-04-08T05:59:49.967Z,68.11
2018-04-08T06:00:56.521Z,68.02
2018-04-08T06:02:02.053Z,68.05
2018-04-08T06:03:07.818Z,68.07
2018-04-08T06:04:14.352Z,67.95
2018-04-08T06:05:20.121Z,67.91
2018-04-08T06:06:26.666Z,67.99
2018-04-08T06:07:33.202Z,67.89
2018-04-08T06:08:39.103Z,67.81
2018-04-08T06:09:44.869Z,67.76
2018-04-08T06:10:50.632Z,67.67
2018-04-08T06:11:56.429Z,67.71
2018-04-08T06:13:02.211Z,67.67
2018-04-08T06:14:07.979Z,67.48
2018-04-08T06:15:14.528Z,67.29
2018-04-08T06:16:21.062Z,67.24
2018-04-08T06:17:26.856Z,67.24
2018-04-08T06:18:32.401Z,67.25
2018-04-08T06:19:38.169Z,67.23
2018-04-08T06:20:43.722Z,67.17
2018-04-08T06:21:49.488Z,67.12
2018-04-08T06:22:56.057Z,66.94
2018-04-08T06:24:02.444Z,66.79
2018-04-08T06:25:08.288Z,66.66
2018-04-08T06:26:14.044Z,66.52
2018-04-08T06:27:19.580Z,66.47
2018-04-08T06:28:25.373Z,66.38
2018-04-08T06:29:31.172Z,66.29
2018-04-08T06:30:36.942Z,66.22
2018-04-08T06:31:42.722Z,66.15
2018-04-08T06:32:49.641Z,65.98
2018-04-08T06:33:56.319Z,65.81
2018-04-08T06:35:01.861Z,65.67
2018-04-08T06:36:07.411Z,65.47
2018-04-08T06:37:13.714Z,65.33
2018-04-08T06:38:19.256Z,65.21
2018-04-08T06:39:24.807Z,64.78
2018-04-08T06:40:30.414Z,64.71
2018-04-08T06:41:35.949Z,64.57
2018-04-08T06:42:41.493Z,64.41
2018-04-08T06:43:47.068Z,64.10
2018-04-08T06:44:52.656Z,63.62
2018-04-08T06:45:58.428Z,62.66
2018-04-08T06:47:03.972Z,62.10
2018-04-08T06:48:09.506Z,61.58
2018-04-08T06:49:15.039Z,61.15
2018-04-08T06:50:20.597Z,61.07
2018-04-08T06:51:27.646Z,60.96
2018-04-08T06:52:33.438Z,60.66
2018-04-08T06:53:39.958Z,60.39
2018-04-08T06:54:46.484Z,60.32
2018-04-08T06:55:52.271Z,60.37
2018-04-08T06:56:58.024Z,59.97
2018-04-08T06:58:04.012Z,59.54
2018-04-08T06:59:09.768Z,59.32
2018-04-08T07:00:15.752Z,59.16
2018-04-08T07:01:21.300Z,59.04
2018-04-08T07:02:27.825Z,58.22
2018-04-08T07:03:33.427Z,58.19
2018-04-08T07:04:38.966Z,57.86
2018-04-08T07:05:44.492Z,57.52
2018-04-08T07:06:50.290Z,57.11
2018-04-08T07:07:56.058Z,56.96
2018-04-08T07:09:02.590Z,56.70
2018-04-08T07:10:08.282Z,56.28
2018-04-08T07:11:14.075Z,55.74
2018-04-08T07:12:19.637Z,54.78
2018-04-08T07:13:26.157Z,53.82
2018-04-08T07:14:31.940Z,52.66
2018-04-08T07:15:38.460Z,51.10
2018-04-08T07:16:44.213Z,50.05
2018-04-08T07:17:50.004Z,49.07
2018-04-08T07:18:55.786Z,48.07
2018-04-08T07:20:01.566Z,46.96
2018-04-08T07:21:07.933Z,45.83
2018-04-08T07:22:14.454Z,44.83
2018-04-08T07:23:20.246Z,43.83
2018-04-08T07:24:26.002Z,43.43
2018-04-08T07:25:31.533Z,43.30
2018-04-08T07:26:37.320Z,42.75
2018-04-08T07:27:43.097Z,41.99
2018-04-08T07:28:49.669Z,41.62
2018-04-08T07:29:55.962Z,41.09
2018-04-08T07:31:01.724Z,40.81
2018-04-08T07:32:07.483Z,40.13
2018-04-08T07:33:13.226Z,39.54
2018-04-08T07:34:19.794Z,39.38
2018-04-08T07:35:26.327Z,38.66
2018-04-08T07:36:32.084Z,38.13
2018-04-08T07:37:38.613Z,37.86
2018-04-08T07:38:44.465Z,37.48
2018-04-08T07:39:50.310Z,36.70
2018-04-08T07:40:56.068Z,36.59
2018-04-08T07:42:02.800Z,36.41
2018-04-08T07:43:08.566Z,36.48
2018-04-08T07:44:15.854Z,36.28
2018-04-08T07:45:22.614Z,35.65
2018-04-08T07:46:29.889Z,35.42
2018-04-08T07:47:36.424Z,35.16
2018-04-08T07:48:42.190Z,34.88
2018-04-08T07:49:47.726Z,34.57
2018-04-08T07:50:53.773Z,34.47
2018-04-08T07:51:59.651Z,34.16
2018-04-08T07:53:05.449Z,33.57
2018-04-08T07:54:10.985Z,33.27
2018-04-08T07:55:16.742Z,32.94
2018-04-08T07:56:22.516Z,32.61
2018-04-08T07:57:28.309Z,32.61
2018-04-08T07:58:34.836Z,32.58
2018-04-08T07:59:40.599Z,32.15
2018-04-08T08:00:46.763Z,31.58
2018-04-08T08:01:52.771Z,31.26
2018-04-08T08:02:58.615Z,31.06
2018-04-08T08:04:04.694Z,31.27
2018-04-08T08:05:11.513Z,31.62
2018-04-08T08:06:17.299Z,31.69
2018-04-08T08:07:23.160Z,31.80
2018-04-08T08:08:30.029Z,32.15
2018-04-08T08:09:35.864Z,31.94
2018-04-08T08:10:41.620Z,32.00
2018-04-08T08:11:47.416Z,32.30
2018-04-08T08:12:53.271Z,32.47
2018-04-08T08:13:59.093Z,32.16
2018-04-08T08:15:04.889Z,31.89
2018-04-08T08:16:10.421Z,32.07
2018-04-08T08:17:16.322Z,32.02
2018-04-08T08:18:22.101Z,32.01
2018-04-08T08:19:27.868Z,31.92
2018-04-08T08:20:34.426Z,31.85
2018-04-08T08:21:40.981Z,32.36
2018-04-08T08:22:47.284Z,32.42
2018-04-08T08:23:54.723Z,32.65
2018-04-08T08:25:01.967Z,32.68
2018-04-08T08:26:07.737Z,32.69
2018-04-08T08:27:14.278Z,32.71
2018-04-08T08:28:20.088Z,32.53
2018-04-08T08:29:25.879Z,32.41
2018-04-08T08:30:31.669Z,32.84
2018-04-08T08:31:37.197Z,32.63
2018-04-08T08:32:42.976Z,32.81
2018-04-08T08:33:48.970Z,32.60
2018-04-08T08:34:55.021Z,32.57
2018-04-08T08:36:00.861Z,32.31
2018-04-08T08:37:06.814Z,32.23
2018-04-08T08:38:12.679Z,32.34
2018-04-08T08:39:18.601Z,32.09
2018-04-08T08:40:24.947Z,32.14
2018-04-08T08:41:31.806Z,31.35
2018-04-08T08:42:38.481Z,31.30
2018-04-08T08:43:44.507Z,31.19
2018-04-08T08:44:50.692Z,30.99
2018-04-08T08:45:57.758Z,30.57
2018-04-08T08:47:03.712Z,30.42
2018-04-08T08:48:09.575Z,30.28
2018-04-08T08:49:15.667Z,29.63
2018-04-08T08:50:22.143Z,29.38
2018-04-08T08:51:29.741Z,29.09
2018-04-08T08:52:36.516Z,28.68
2018-04-08T08:53:43.886Z,28.06
2018-04-08T08:54:50.197Z,28.48
2018-04-08T08:55:56.430Z,28.54
2018-04-08T08:57:02.603Z,28.48
2018-04-08T08:58:10.141Z,28.21
2018-04-08T08:59:16.497Z,27.86
2018-04-08T09:00:22.958Z,27.53
2018-04-08T09:01:29.132Z,27.98
2018-04-08T09:02:35.630Z,28.16
2018-04-08T09:03:41.627Z,28.07
2018-04-08T09:04:47.439Z,27.94
2018-04-08T09:05:53.588Z,27.54
2018-04-08T09:07:00.253Z,27.82
2018-04-08T09:08:06.298Z,27.48
2018-04-08T09:09:12.240Z,27.77
2018-04-08T09:10:18.499Z,28.00
2018-04-08T09:11:24.492Z,28.33
2018-04-08T09:12:33.592Z,28.39
2018-04-08T09:13:41.083Z,28.62
2018-04-08T09:14:47.198Z,28.74
2018-04-08T09:15:52.905Z,28.87
2018-04-08T09:16:59.497Z,28.96
2018-04-08T09:18:07.084Z,29.04
2018-04-08T09:19:13.326Z,28.87
2018-04-08T09:20:25.981Z,28.42
2018-04-08T09:21:39.155Z,28.44
2018-04-08T09:22:50.751Z,28.52
2018-04-08T09:24:00.058Z,28.16
2018-04-08T09:25:21.674Z,27.95
2018-04-08T09:26:27.521Z,27.75
2018-04-08T09:27:33.868Z,27.56
2018-04-08T09:28:39.934Z,27.31
2018-04-08T09:29:45.888Z,27.13
2018-04-08T09:30:53.729Z,27.18
2018-04-08T09:32:00.580Z,27.10
2018-04-08T09:33:07.819Z,27.47
2018-04-08T09:34:14.238Z,27.13
2018-04-08T09:35:20.730Z,26.79
2018-04-08T09:36:26.888Z,27.19
2018-04-08T09:37:33.088Z,27.43
2018-04-08T09:38:39.165Z,27.61
2018-04-08T09:39:46.052Z,27.81
2018-04-08T09:40:52.121Z,27.55
2018-04-08T09:41:58.142Z,27.83
2018-04-08T09:43:04.017Z,27.77
2018-04-08T09:44:10.332Z,27.83
2018-04-08T09:45:17.708Z,27.24
2018-04-08T09:46:23.233Z,27.79
2018-04-08T09:47:29.448Z,27.47
2018-04-08T09:48:35.854Z,27.93
2018-04-08T09:49:42.868Z,28.73
2018-04-08T09:50:50.533Z,29.00
2018-04-08T09:51:57.379Z,28.58
2018-04-08T09:53:04.326Z,28.04
2018-04-08T09:54:12.104Z,27.68
2018-04-08T09:55:19.929Z,27.71
2018-04-08T09:56:25.770Z,27.80
2018-04-08T09:57:31.920Z,27.95
2018-04-08T09:58:38.314Z,28.01
2018-04-08T09:59:44.374Z,27.80
2018-04-08T10:02:37.175Z,28.27
2018-04-08T10:03:50.628Z,28.54
2018-04-08T10:04:57.058Z,28.50
2018-04-08T10:06:02.699Z,28.00
2018-04-08T10:07:10.355Z,27.96
2018-04-08T10:08:17.144Z,27.81
2018-04-08T10:09:24.019Z,27.86
2018-04-08T10:10:30.061Z,28.06
2018-04-08T10:11:37.023Z,28.49
2018-04-08T10:12:43.723Z,28.95
2018-04-08T10:13:51.343Z,29.05
2018-04-08T10:14:58.556Z,29.04
2018-04-08T10:16:06.039Z,28.96
2018-04-08T10:17:12.091Z,28.92
2018-04-08T10:18:17.977Z,29.09
2018-04-08T10:19:24.392Z,29.06
2018-04-08T10:20:31.459Z,29.06
2018-04-08T10:21:37.323Z,29.21
2018-04-08T10:22:44.250Z,29.72
2018-04-08T10:23:51.406Z,29.73
2018-04-08T10:24:59.133Z,29.29
2018-04-08T10:26:05.976Z,29.65
2018-04-08T10:27:12.570Z,29.92
2018-04-08T10:28:19.916Z,29.87
2018-04-08T10:29:27.731Z,29.94
2018-04-08T10:30:33.992Z,30.28
2018-04-08T10:31:41.834Z,30.36
2018-04-08T10:32:48.332Z,30.49
2018-04-08T10:33:54.486Z,30.67
2018-04-08T10:35:00.838Z,30.77
2018-04-08T10:36:06.912Z,30.69
2018-04-08T10:37:13.554Z,31.02
2018-04-08T10:38:21.029Z,31.06
2018-04-08T10:39:28.105Z,30.88
2018-04-08T10:40:34.152Z,30.94
2018-04-08T10:41:41.549Z,30.90
2018-04-08T10:42:47.689Z,31.40
2018-04-08T10:43:56.659Z,31.67
2018-04-08T10:45:03.265Z,31.90
2018-04-08T10:46:11.156Z,31.89
2018-04-08T10:47:19.400Z,32.20
2018-04-08T10:48:25.301Z,32.09
2018-04-08T10:49:32.164Z,32.09
2018-04-08T10:50:38.165Z,32.31
2018-04-08T10:51:44.096Z,33.06
2018-04-08T10:52:51.136Z,33.48
2018-04-08T10:53:57.176Z,33.94
2018-04-08T10:55:03.430Z,34.18
2018-04-08T10:56:09.670Z,34.60
2018-04-08T10:57:15.732Z,34.76
2018-04-08T10:58:21.898Z,34.99
2018-04-08T10:59:27.982Z,35.06
2018-04-08T11:00:36.754Z,34.97
2018-04-08T11:01:49.296Z,35.30
2018-04-08T11:02:56.835Z,35.83
2018-04-08T11:04:04.779Z,36.07
2018-04-08T11:05:12.693Z,36.70
2018-04-08T11:06:18.887Z,37.21
2018-04-08T11:07:26.404Z,37.50
2018-04-08T11:08:33.342Z,37.48
2018-04-08T11:09:40.605Z,37.43
2018-04-08T11:10:46.592Z,37.36
2018-04-08T11:11:53.532Z,37.40
2018-04-08T11:13:03.685Z,37.36
2018-04-08T11:14:12.963Z,37.16
2018-04-08T11:15:19.229Z,37.70
2018-04-08T11:16:26.127Z,38.24
2018-04-08T11:17:32.799Z,38.53
2018-04-08T11:18:38.924Z,38.52
2018-04-08T11:19:44.817Z,38.58
2018-04-08T11:20:51.304Z,38.51
2018-04-08T11:21:58.309Z,38.56
2018-04-08T11:23:07.475Z,38.74
2018-04-08T11:24:13.170Z,39.10
2018-04-08T11:25:21.430Z,38.94
2018-04-08T11:26:29.146Z,38.78
2018-04-08T11:27:35.027Z,38.33
2018-04-08T11:28:42.896Z,38.35
2018-04-08T11:29:50.848Z,38.72
2018-04-08T11:30:59.580Z,38.90
2018-04-08T11:32:06.499Z,39.11
2018-04-08T11:33:12.928Z,39.07
2018-04-08T11:34:19.442Z,39.04
2018-04-08T11:35:26.277Z,38.92
2018-04-08T11:36:33.129Z,38.76
2018-04-08T11:37:39.984Z,38.58
2018-04-08T11:38:45.938Z,38.58
2018-04-08T11:39:51.991Z,38.83
2018-04-08T11:40:59.667Z,38.91
2018-04-08T11:42:05.817Z,39.07
2018-04-08T11:43:11.839Z,38.99
2018-04-08T11:44:17.946Z,38.95
2018-04-08T11:45:24.782Z,39.52
2018-04-08T11:46:31.954Z,39.52
2018-04-08T11:47:37.970Z,39.46
2018-04-08T11:48:43.548Z,39.61
2018-04-08T11:49:49.338Z,39.53
2018-04-08T11:50:56.198Z,39.72
2018-04-08T11:52:02.506Z,39.83
2018-04-08T11:53:08.491Z,40.09
2018-04-08T11:54:14.553Z,40.38
2018-04-08T11:55:21.930Z,40.31
2018-04-08T11:56:29.592Z,40.23
2018-04-08T11:57:35.896Z,40.30
2018-04-08T11:58:42.051Z,40.33
2018-04-08T11:59:48.240Z,40.44
2018-04-08T12:00:54.856Z,40.32
2018-04-08T12:02:01.210Z,40.23
2018-04-08T12:03:09.068Z,39.99
2018-04-08T12:04:15.139Z,39.73
2018-04-08T12:05:21.740Z,39.75
2018-04-08T12:06:28.036Z,39.55
2018-04-08T12:07:34.255Z,39.54
2018-04-08T12:08:40.399Z,39.32
2018-04-08T12:09:46.350Z,39.18
2018-04-08T12:10:52.718Z,39.20
2018-04-08T12:11:59.993Z,38.54
2018-04-08T12:13:06.312Z,38.30
2018-04-08T12:14:12.271Z,38.45
2018-04-08T12:15:18.244Z,38.60
2018-04-08T12:16:24.447Z,38.71
2018-04-08T12:17:31.320Z,38.68
2018-04-08T12:18:38.495Z,38.65
2018-04-08T12:19:44.783Z,38.70
2018-04-08T12:20:50.925Z,38.43
2018-04-08T12:21:57.451Z,38.41
2018-04-08T12:23:04.837Z,38.39
2018-04-08T12:24:11.671Z,38.41
2018-04-08T12:25:18.030Z,38.43
2018-04-08T12:26:25.678Z,38.24
2018-04-08T12:27:31.458Z,38.35
2018-04-08T12:28:37.356Z,38.37
2018-04-08T12:29:43.040Z,38.33
2018-04-08T12:30:48.904Z,38.48
2018-04-08T12:31:56.223Z,38.52
2018-04-08T12:33:02.794Z,38.56
2018-04-08T12:34:08.339Z,38.51
2018-04-08T12:35:14.920Z,38.48
2018-04-08T12:36:20.764Z,38.47
2018-04-08T12:37:26.565Z,38.33
2018-04-08T12:38:32.338Z,38.35
2018-04-08T12:39:38.283Z,38.34
2018-04-08T12:40:45.115Z,38.18
2018-04-08T12:41:51.153Z,37.99
2018-04-08T12:42:56.502Z,37.81
2018-04-08T12:44:02.290Z,37.98
2018-04-08T12:45:08.092Z,38.11
2018-04-08T12:46:14.537Z,38.26
2018-04-08T12:47:20.364Z,38.31
2018-04-08T12:48:27.011Z,38.29
2018-04-08T12:49:33.414Z,38.15
2018-04-08T12:50:39.074Z,38.03
2018-04-08T12:51:45.108Z,38.10
2018-04-08T12:52:51.239Z,37.94
2018-04-08T12:53:58.322Z,37.77
2018-04-08T12:55:04.200Z,37.60
2018-04-08T12:56:09.998Z,37.50
2018-04-08T12:57:15.781Z,37.29
2018-04-08T12:58:21.624Z,37.54
2018-04-08T12:59:27.443Z,37.55
2018-04-08T13:00:33.247Z,37.43
2018-04-08T13:01:39.975Z,37.28
2018-04-08T13:02:45.531Z,37.22
2018-04-08T13:03:52.097Z,37.24
2018-04-08T13:04:58.644Z,37.32
2018-04-08T13:06:06.032Z,37.48
2018-04-08T13:07:11.591Z,37.40
2018-04-08T13:08:18.127Z,37.38
2018-04-08T13:09:23.933Z,38.00
2018-04-08T13:10:29.743Z,38.01
2018-04-08T13:11:36.240Z,37.96
2018-04-08T13:12:41.853Z,37.88
2018-04-08T13:13:47.708Z,38.06
2018-04-08T13:14:54.077Z,38.16
2018-04-08T13:16:00.369Z,38.02
2018-04-08T13:17:07.052Z,38.07
2018-04-08T13:18:13.073Z,38.17
2018-04-08T13:19:19.382Z,38.47
2018-04-08T13:20:24.988Z,38.52
2018-04-08T13:21:31.313Z,38.59
2018-04-08T13:22:37.108Z,38.51
2018-04-08T13:23:42.899Z,38.45
2018-04-08T13:24:49.426Z,38.36
2018-04-08T13:25:55.216Z,38.44
2018-04-08T13:27:01.902Z,38.63
2018-04-08T13:28:07.710Z,38.74
2018-04-08T13:29:13.526Z,38.40
2018-04-08T13:30:20.217Z,38.70
2018-04-08T13:31:26.029Z,39.05
2018-04-08T13:32:31.857Z,39.27
2018-04-08T13:33:38.084Z,39.38
2018-04-08T13:34:43.971Z,39.35
2018-04-08T13:35:50.433Z,39.48
2018-04-08T13:36:56.007Z,39.52
2018-04-08T13:38:02.560Z,39.43
2018-04-08T13:39:08.872Z,39.34
2018-04-08T13:40:14.696Z,39.26
2018-04-08T13:41:20.520Z,39.12
2018-04-08T13:42:27.093Z,38.98
2018-04-08T13:43:33.174Z,38.93
2018-04-08T13:44:39.053Z,38.91
2018-04-08T13:45:44.819Z,38.96
2018-04-08T13:46:50.591Z,38.90
2018-04-08T13:47:56.482Z,39.09
2018-04-08T13:49:02.371Z,39.16
2018-04-08T13:50:08.148Z,39.09
2018-04-08T13:51:13.926Z,39.02
2018-04-08T13:52:20.127Z,39.03
2018-04-08T13:53:25.916Z,38.70
2018-04-08T13:54:32.701Z,38.35
2018-04-08T13:55:39.449Z,38.29
2018-04-08T13:56:46.300Z,38.38
2018-04-08T13:57:52.868Z,38.50
2018-04-08T13:58:59.434Z,38.38
2018-04-08T14:00:05.697Z,37.84
2018-04-08T14:01:11.658Z,37.22
2018-04-08T14:02:17.707Z,36.86
2018-04-08T14:03:23.755Z,36.68
2018-04-08T14:04:29.465Z,36.66
2018-04-08T14:05:36.025Z,36.67
2018-04-08T14:06:42.811Z,36.98
2018-04-08T14:07:48.665Z,37.23
2018-04-08T14:08:54.687Z,37.36
2018-04-08T14:10:00.527Z,37.56
2018-04-08T14:11:08.285Z,37.44
2018-04-08T14:12:14.355Z,37.19
2018-04-08T14:13:20.360Z,37.12
2018-04-08T14:14:26.321Z,37.08
2018-04-08T14:15:32.396Z,36.94
2018-04-08T14:16:39.262Z,36.93
2018-04-08T14:17:46.498Z,36.96